Time;durP1;ratioP1;P1;durP2;ratioP2;P2;SDS_P1;SDS_P2;PMS_P1;PMS_P2;Temp;Humidity;BMP_temperature;BMP_pressure;BME280_temperature;BME280_humidity;BME280_pressure;Samples;Min_cycle;Max_cycle;Signal;HPM_P1;HPM_P2
2022/05/19 00:01:37;;;;;;;4.72;2.15;;;21.60;90.60;;;;;;5004749;28;20073;-76
2022/05/19 00:04:03;;;;;;;6.65;2.78;;;21.50;90.60;;;;;;5006302;28;20084;-76
2022/05/19 00:06:29;;;;;;;4.03;2.13;;;21.50;90.80;;;;;;5007037;28;20061;-76
2022/05/19 00:08:54;;;;;;;5.10;2.22;;;21.40;90.80;;;;;;5004997;28;20026;-76
2022/05/19 00:11:26;;;;;;;5.35;2.42;;;21.50;90.90;;;;;;5012053;28;20034;-76
2022/05/19 00:13:51;;;;;;;7.50;3.25;;;21.50;91.00;;;;;;5009409;28;20744;-78
2022/05/19 00:16:17;;;;;;;4.78;2.38;;;21.40;90.80;;;;;;5008901;28;20080;-76
2022/05/19 00:18:42;;;;;;;4.90;2.95;;;21.50;90.80;;;;;;4998566;28;20030;-75
2022/05/19 00:21:08;;;;;;;4.20;2.65;;;21.40;90.70;;;;;;5007994;28;20030;-76
2022/05/19 00:23:34;;;;;;;7.00;2.45;;;21.40;91.00;;;;;;5007609;28;20840;-76
2022/05/19 00:26:00;;;;;;;6.95;2.72;;;21.40;91.00;;;;;;5008008;28;20041;-76
2022/05/19 00:28:25;;;;;;;6.28;2.50;;;21.40;91.20;;;;;;5010730;28;20072;-76
2022/05/19 00:30:51;;;;;;;4.97;2.83;;;21.40;91.10;;;;;;5014595;28;20026;-75
2022/05/19 00:33:16;;;;;;;5.05;2.53;;;21.40;91.10;;;;;;5011453;28;20040;-76
2022/05/19 00:35:42;;;;;;;4.53;2.67;;;21.50;91.20;;;;;;5011861;28;20042;-75
2022/05/19 00:38:08;;;;;;;4.50;2.70;;;21.50;91.40;;;;;;4996847;28;20451;-75
2022/05/19 00:40:35;;;;;;;5.82;2.70;;;21.40;91.50;;;;;;5015983;28;20037;-76
2022/05/19 00:43:01;;;;;;;7.60;3.03;;;21.40;91.40;;;;;;4998314;28;20038;-76
2022/05/19 00:45:39;;;;;;;5.55;2.88;;;21.40;91.10;;;;;;4998829;28;20041;-75
2022/05/19 00:48:29;;;;;;;7.00;2.45;;;21.40;91.30;;;;;;4998015;28;20081;-75
2022/05/19 00:51:01;;;;;;;7.75;2.90;;;21.30;91.30;;;;;;5008827;28;20045;-76
2022/05/19 00:53:28;;;;;;;7.30;2.58;;;21.30;91.40;;;;;;4997794;28;20038;-76
2022/05/19 00:55:56;;;;;;;5.47;2.50;;;21.30;91.50;;;;;;5005889;28;20025;-76
2022/05/19 00:58:47;;;;;;;6.18;3.05;;;21.20;91.50;;;;;;5003410;28;20038;-75
2022/05/19 01:01:14;;;;;;;9.35;3.20;;;21.20;91.60;;;;;;5006756;28;20404;-75
2022/05/19 01:03:46;;;;;;;6.05;2.83;;;21.20;91.40;;;;;;5000505;28;20042;-75
2022/05/19 01:06:17;;;;;;;7.30;2.85;;;21.20;91.30;;;;;;5006363;28;20029;-76
2022/05/19 01:08:50;;;;;;;4.82;2.65;;;21.30;91.50;;;;;;5009479;28;20072;-75
2022/05/19 01:11:18;;;;;;;5.45;3.10;;;21.00;91.90;;;;;;5015132;28;20030;-76
2022/05/19 01:13:44;;;;;;;7.38;3.15;;;21.00;91.70;;;;;;5012738;28;20492;-75
2022/05/19 01:16:10;;;;;;;7.88;2.95;;;21.10;91.60;;;;;;5010169;28;20093;-76
2022/05/19 01:18:37;;;;;;;5.50;3.42;;;21.20;91.60;;;;;;5006602;28;20057;-75
2022/05/19 01:21:03;;;;;;;7.70;3.20;;;21.20;91.70;;;;;;5006906;28;20053;-76
2022/05/19 01:23:48;;;;;;;4.78;2.50;;;21.20;91.40;;;;;;5006828;28;20031;-75
2022/05/19 01:26:22;;;;;;;6.47;3.45;;;21.20;91.50;;;;;;5003151;28;20556;-75
2022/05/19 01:28:48;;;;;;;;;;;21.20;91.60;;;;;;5008111;28;20042;-75
2022/05/19 01:31:36;;;;;;;5.57;3.08;;;21.10;91.80;;;;;;5010686;28;19909;-75
2022/05/19 01:34:04;;;;;;;5.72;3.10;;;21.10;91.80;;;;;;5003677;28;20026;-75
2022/05/19 01:36:30;;;;;;;6.63;3.20;;;21.10;91.70;;;;;;5018281;28;20113;-75
2022/05/19 01:39:12;;;;;;;6.65;3.10;;;21.10;91.90;;;;;;4999227;28;20116;-76
2022/05/19 01:42:03;;;;;;;7.43;3.20;;;21.00;91.80;;;;;;5012485;28;20038;-76
2022/05/19 01:44:52;;;;;;;8.82;3.75;;;21.00;91.70;;;;;;5007181;28;20030;-76
2022/05/19 01:47:39;;;;;;;5.85;2.83;;;21.00;91.80;;;;;;5009673;28;20026;-76
2022/05/19 01:50:15;;;;;;;4.53;2.47;;;20.90;92.00;;;;;;4999190;28;20030;-75
2022/05/19 01:52:56;;;;;;;5.68;2.67;;;20.90;92.00;;;;;;5013923;28;20045;-76
2022/05/19 01:55:35;;;;;;;10.50;3.13;;;20.90;92.00;;;;;;5002479;28;20027;-75
2022/05/19 01:58:11;;;;;;;4.95;2.70;;;20.90;91.60;;;;;;5009989;28;20030;-76
2022/05/19 02:00:38;;;;;;;8.85;2.72;;;20.90;91.80;;;;;;5010103;28;20603;-76
2022/05/19 02:03:18;;;;;;;8.50;3.00;;;20.90;91.80;;;;;;5008136;28;20093;-76
2022/05/19 02:06:00;;;;;;;5.60;1.98;;;20.90;91.70;;;;;;5005600;28;20029;-76
2022/05/19 02:08:33;;;;;;;7.47;2.80;;;20.90;91.80;;;;;;5009768;28;20502;-75
2022/05/19 02:11:03;;;;;;;6.03;2.50;;;20.80;91.80;;;;;;5009246;28;20492;-75
2022/05/19 02:13:31;;;;;;;7.55;2.42;;;20.70;91.80;;;;;;5007355;28;20042;-75
2022/05/19 02:16:01;;;;;;;3.70;2.30;;;20.60;91.80;;;;;;5007917;28;20018;-75
2022/05/19 02:18:27;;;;;;;7.78;2.88;;;20.60;91.80;;;;;;5014883;28;20026;-74
2022/05/19 02:20:55;;;;;;;9.48;3.45;;;20.50;91.90;;;;;;5016399;28;20033;-75
2022/05/19 02:23:21;;;;;;;6.72;2.40;;;20.60;91.80;;;;;;5013662;28;20033;-75
2022/05/19 02:25:49;;;;;;;7.07;2.15;;;20.60;92.00;;;;;;5000023;28;20061;-75
2022/05/19 02:28:36;;;;;;;4.70;2.22;;;20.50;92.10;;;;;;5005225;28;20062;-75
2022/05/19 02:31:02;;;;;;;6.70;2.40;;;20.50;92.20;;;;;;5005539;28;20389;-76
2022/05/19 02:33:28;;;;;;;6.43;2.72;;;20.60;92.40;;;;;;5010239;28;20026;-75
2022/05/19 02:35:54;;;;;;;6.07;2.40;;;20.60;92.10;;;;;;5004199;28;20117;-76
2022/05/19 02:38:21;;;;;;;3.78;2.20;;;20.40;92.20;;;;;;5006048;28;20373;-75
2022/05/19 02:40:47;;;;;;;6.68;2.97;;;20.40;92.50;;;;;;5014121;28;20027;-75
2022/05/19 02:43:14;;;;;;;6.18;3.20;;;20.40;92.30;;;;;;5004694;28;20034;-75
2022/05/19 02:45:40;;;;;;;5.05;2.10;;;20.50;92.00;;;;;;4996008;28;20025;-75
2022/05/19 02:48:08;;;;;;;5.50;2.33;;;20.60;91.80;;;;;;5010974;28;20452;-75
2022/05/19 02:50:35;;;;;;;7.40;2.40;;;20.50;92.10;;;;;;5023994;28;20065;-75
2022/05/19 02:53:01;;;;;;;7.47;2.55;;;20.60;91.50;;;;;;5022532;28;20050;-76
2022/05/19 02:55:27;;;;;;;5.07;2.13;;;20.60;91.60;;;;;;5001789;28;21662;-76
2022/05/19 02:57:52;;;;;;;13.40;3.63;;;20.60;91.70;;;;;;5006506;28;20026;-77
2022/05/19 03:00:22;;;;;;;8.95;2.20;;;20.60;92.00;;;;;;5006827;28;20122;-74
2022/05/19 03:02:49;;;;;;;4.75;2.00;;;20.30;91.90;;;;;;5006717;28;20388;-75
2022/05/19 03:05:21;;;;;;;5.90;2.60;;;20.40;91.70;;;;;;4998025;28;20064;-76
2022/05/19 03:07:47;;;;;;;5.30;2.35;;;20.50;91.70;;;;;;5002662;28;20456;-75
2022/05/19 03:10:13;;;;;;;6.20;1.90;;;20.50;91.60;;;;;;4997109;28;20042;-77
2022/05/19 03:12:39;;;;;;;4.35;2.35;;;20.50;91.70;;;;;;5004165;28;20038;-77
2022/05/19 03:15:05;;;;;;;4.47;2.08;;;20.50;91.50;;;;;;5003431;28;20034;-76
2022/05/19 03:17:31;;;;;;;8.70;2.60;;;20.50;91.70;;;;;;5000336;28;20117;-75
2022/05/19 03:19:57;;;;;;;6.70;2.53;;;20.50;91.70;;;;;;4993748;28;20577;-75
2022/05/19 03:22:25;;;;;;;7.95;2.28;;;20.40;92.20;;;;;;5005779;28;20037;-75
2022/05/19 03:24:51;;;;;;;5.75;2.58;;;20.30;92.10;;;;;;5004657;28;20415;-75
2022/05/19 03:27:19;;;;;;;4.78;2.70;;;20.10;92.80;;;;;;5002587;28;20038;-75
2022/05/19 03:29:45;;;;;;;7.35;2.45;;;20.10;92.80;;;;;;4995343;28;20026;-77
2022/05/19 03:32:11;;;;;;;5.10;2.08;;;20.00;92.70;;;;;;5002373;28;20041;-76
2022/05/19 03:34:37;;;;;;;7.43;2.60;;;20.00;93.10;;;;;;5004226;28;20080;-76
2022/05/19 03:37:04;;;;;;;8.35;2.95;;;20.00;92.90;;;;;;5009431;28;20079;-76
2022/05/19 03:39:31;;;;;;;7.10;2.63;;;19.90;93.10;;;;;;5012004;28;20094;-76
2022/05/19 03:41:56;;;;;;;7.22;2.35;;;19.80;93.30;;;;;;4997485;28;20037;-76
2022/05/19 03:44:22;;;;;;;6.07;2.72;;;19.80;93.40;;;;;;5004042;28;20139;-77
2022/05/19 03:46:48;;;;;;;7.75;3.17;;;19.70;93.90;;;;;;4999844;28;20393;-75
2022/05/19 03:49:13;;;;;;;5.57;2.90;;;19.60;94.00;;;;;;5002027;28;20072;-75
2022/05/19 03:51:41;;;;;;;4.88;2.65;;;19.40;94.20;;;;;;4988283;28;20125;-76
2022/05/19 03:54:07;;;;;;;6.10;2.33;;;19.30;94.40;;;;;;5001854;28;20524;-75
2022/05/19 03:56:33;;;;;;;4.20;2.20;;;19.20;94.30;;;;;;4997534;28;20488;-76
2022/05/19 03:58:59;;;;;;;5.95;2.65;;;19.10;94.70;;;;;;5003910;28;20037;-76
2022/05/19 04:01:25;;;;;;;4.60;2.42;;;19.00;94.60;;;;;;5000861;28;20034;-75
2022/05/19 04:03:50;;;;;;;3.65;2.13;;;19.10;94.70;;;;;;4997888;28;20042;-76
2022/05/19 04:06:18;;;;;;;7.10;2.90;;;18.60;95.60;;;;;;5004625;28;20072;-76
2022/05/19 04:08:43;;;;;;;4.85;2.05;;;18.60;96.00;;;;;;5005971;28;20121;-75
2022/05/19 04:11:09;;;;;;;6.88;2.55;;;18.50;96.20;;;;;;4995534;28;20140;-77
2022/05/19 04:13:36;;;;;;;8.18;3.13;;;18.50;96.20;;;;;;4997037;28;20084;-75
2022/05/19 04:16:02;;;;;;;6.13;2.28;;;18.70;96.10;;;;;;4993137;28;20030;-76
2022/05/19 04:18:28;;;;;;;5.75;2.47;;;18.80;95.50;;;;;;4996493;28;20054;-75
2022/05/19 04:20:54;;;;;;;4.38;2.50;;;19.00;95.10;;;;;;5004710;28;20144;-76
2022/05/19 04:23:20;;;;;;;4.07;1.90;;;19.20;95.00;;;;;;4997395;28;20026;-76
2022/05/19 04:25:46;;;;;;;6.00;2.53;;;19.20;94.70;;;;;;4994336;28;20109;-75
2022/05/19 04:28:12;;;;;;;5.38;2.45;;;19.20;94.40;;;;;;4996203;28;21302;-76
2022/05/19 04:30:38;;;;;;;4.70;2.55;;;19.20;94.50;;;;;;4993638;28;20042;-76
2022/05/19 04:33:04;;;;;;;6.28;2.35;;;19.30;94.30;;;;;;4997287;28;20034;-75
2022/05/19 04:35:30;;;;;;;5.63;2.85;;;19.20;95.20;;;;;;4996257;28;20037;-77
2022/05/19 04:37:57;;;;;;;7.88;2.67;;;19.00;95.10;;;;;;4994570;28;20042;-75
2022/05/19 04:40:23;;;;;;;4.28;2.35;;;18.90;95.10;;;;;;5009915;28;20072;-77
2022/05/19 04:42:49;;;;;;;5.45;2.33;;;19.00;95.50;;;;;;5018507;28;20038;-75
2022/05/19 04:45:17;;;;;;;6.30;2.20;;;18.90;95.80;;;;;;4986575;28;20037;-75
2022/05/19 04:47:43;;;;;;;9.05;2.65;;;18.70;96.10;;;;;;4978629;28;20034;-76
2022/05/19 04:50:10;;;;;;;4.72;2.28;;;18.70;96.30;;;;;;4995810;28;20040;-75
2022/05/19 04:52:36;;;;;;;4.95;2.42;;;18.40;97.00;;;;;;5003908;28;20053;-76
2022/05/19 04:55:04;;;;;;;4.13;2.30;;;18.40;97.10;;;;;;5000440;28;20041;-77
2022/05/19 04:57:30;;;;;;;5.43;2.40;;;18.50;97.20;;;;;;5004860;28;20038;-77
2022/05/19 04:59:55;;;;;;;6.13;2.67;;;18.70;96.60;;;;;;5002609;28;20033;-75
2022/05/19 05:02:21;;;;;;;6.30;2.60;;;18.80;96.40;;;;;;4999116;28;20380;-76
2022/05/19 05:04:46;;;;;;;4.63;2.40;;;18.80;96.40;;;;;;4995604;28;20646;-76
2022/05/19 05:07:12;;;;;;;5.72;2.60;;;19.10;95.20;;;;;;4990946;28;20485;-75
2022/05/19 05:09:38;;;;;;;5.22;2.22;;;19.30;94.60;;;;;;5005636;28;20492;-75
2022/05/19 05:12:04;;;;;;;5.80;2.50;;;19.20;94.90;;;;;;5006604;28;20509;-75
2022/05/19 05:14:30;;;;;;;5.63;2.75;;;19.30;94.70;;;;;;4999938;28;20030;-76
2022/05/19 05:16:56;;;;;;;5.22;2.75;;;19.20;95.30;;;;;;5014401;28;20033;-76
2022/05/19 05:19:23;;;;;;;7.60;2.60;;;19.20;95.50;;;;;;5006156;28;20154;-75
2022/05/19 05:21:51;;;;;;;9.55;3.20;;;19.10;96.10;;;;;;4997703;28;20033;-78
2022/05/19 05:24:17;;;;;;;5.88;2.80;;;19.10;96.30;;;;;;5011239;28;20033;-76
2022/05/19 05:26:43;;;;;;;6.60;2.60;;;19.20;95.90;;;;;;5020529;28;20045;-76
2022/05/19 05:29:09;;;;;;;6.32;3.13;;;19.20;95.90;;;;;;4998134;28;20022;-84
2022/05/19 05:31:35;;;;;;;7.80;2.53;;;19.30;96.10;;;;;;4985636;28;20030;-76
2022/05/19 05:34:01;;;;;;;4.45;2.45;;;19.40;95.60;;;;;;4985552;28;20034;-75
2022/05/19 05:36:27;;;;;;;5.07;1.95;;;19.40;95.90;;;;;;4998305;28;20026;-76
2022/05/19 05:38:52;;;;;;;5.95;2.28;;;19.40;95.30;;;;;;5002039;28;20057;-76
2022/05/19 05:41:18;;;;;;;4.68;2.70;;;19.70;95.70;;;;;;5008692;28;20108;-76
2022/05/19 05:43:44;;;;;;;5.68;2.67;;;19.70;96.30;;;;;;5008214;28;20034;-75
2022/05/19 05:46:14;;;;;;;4.75;2.17;;;19.90;96.00;;;;;;5000338;28;20037;-75
2022/05/19 05:48:40;;;;;;;6.32;2.40;;;20.10;96.30;;;;;;4999077;28;20022;-79
2022/05/19 05:51:08;;;;;;;11.40;3.13;;;20.30;95.70;;;;;;5010147;28;20057;-76
2022/05/19 05:53:35;;;;;;;13.20;4.18;;;20.30;96.10;;;;;;5001786;28;20026;-76
2022/05/19 05:56:01;;;;;;;6.60;2.65;;;20.40;95.70;;;;;;4994983;28;20065;-76
2022/05/19 05:58:27;;;;;;;7.75;3.00;;;20.50;94.60;;;;;;5000528;28;20021;-79
2022/05/19 06:00:52;;;;;;;6.25;2.85;;;20.40;94.40;;;;;;5005745;28;20118;-74
2022/05/19 06:03:18;;;;;;;5.72;2.30;;;20.50;94.30;;;;;;5001680;28;20069;-75
2022/05/19 06:05:44;;;;;;;6.22;2.35;;;20.60;93.90;;;;;;4994397;28;20053;-73
2022/05/19 06:08:09;;;;;;;7.60;2.22;;;20.60;94.20;;;;;;4993013;28;20026;-73
2022/05/19 06:10:36;;;;;;;7.35;3.22;;;20.80;93.40;;;;;;4998169;28;20522;-73
2022/05/19 06:13:02;;;;;;;5.18;1.90;;;20.80;93.20;;;;;;4994508;28;20031;-73
2022/05/19 06:15:27;;;;;;;14.45;2.88;;;20.80;93.10;;;;;;4991937;28;20551;-74
2022/05/19 06:17:53;;;;;;;9.40;2.75;;;20.80;93.30;;;;;;5000926;28;20025;-74
2022/05/19 06:20:19;;;;;;;10.43;2.97;;;20.70;92.90;;;;;;5001190;28;20045;-75
2022/05/19 06:22:46;;;;;;;5.75;2.50;;;20.60;93.70;;;;;;5000120;28;20375;-73
2022/05/19 06:25:16;;;;;;;6.75;2.65;;;20.50;92.90;;;;;;5003995;28;20064;-74
2022/05/19 06:27:42;;;;;;;5.88;2.40;;;20.40;92.80;;;;;;4986799;28;20191;-73
2022/05/19 06:30:09;;;;;;;4.28;2.10;;;20.20;92.90;;;;;;4996394;28;20479;-74
2022/05/19 06:32:38;;;;;;;6.22;2.40;;;20.10;93.40;;;;;;5003157;28;20034;-73
2022/05/19 06:35:04;;;;;;;9.40;2.97;;;20.20;93.10;;;;;;4997369;28;20105;-74
2022/05/19 06:37:31;;;;;;;8.65;2.28;;;20.20;93.30;;;;;;4988116;28;20040;-73
2022/05/19 06:39:56;;;;;;;4.68;2.10;;;20.60;96.90;;;;;;4991366;28;20113;-73
2022/05/19 06:42:22;;;;;;;7.40;2.45;;;20.80;93.70;;;;;;4991807;28;20650;-73
2022/05/19 06:44:48;;;;;;;6.45;1.90;;;20.40;92.90;;;;;;4994971;28;20735;-75
2022/05/19 06:47:13;;;;;;;5.57;1.92;;;20.40;93.10;;;;;;4998292;28;20061;-73
2022/05/19 06:49:44;;;;;;;9.63;2.45;;;20.60;93.30;;;;;;4990292;28;20125;-72
2022/05/19 06:52:13;;;;;;;6.68;2.30;;;20.80;93.30;;;;;;4992209;28;20034;-73
2022/05/19 06:54:40;;;;;;;6.50;2.10;;;21.00;93.20;;;;;;4992878;28;20389;-72
2022/05/19 06:57:06;;;;;;;6.68;2.05;;;21.20;93.10;;;;;;4997382;28;20031;-73
2022/05/19 06:59:32;;;;;;;8.20;2.08;;;21.50;93.10;;;;;;4992204;28;20093;-74
2022/05/19 07:01:57;;;;;;;4.30;2.60;;;21.70;93.20;;;;;;4995627;28;20488;-74
2022/05/19 07:04:23;;;;;;;7.07;2.35;;;21.90;92.60;;;;;;4990387;28;20038;-73
2022/05/19 07:06:49;;;;;;;8.20;2.67;;;22.00;92.40;;;;;;4990673;28;20038;-73
2022/05/19 07:09:14;;;;;;;6.85;2.28;;;22.20;91.80;;;;;;5002185;28;20030;-73
2022/05/19 07:11:40;;;;;;;6.82;2.28;;;22.40;91.80;;;;;;4990213;28;20041;-73
2022/05/19 07:14:07;;;;;;;6.30;2.40;;;22.40;91.30;;;;;;4993041;28;20034;-73
2022/05/19 07:16:34;;;;;;;11.65;2.55;;;22.50;91.70;;;;;;4990802;28;20474;-73
2022/05/19 07:21:46;;;;;;;9.98;2.20;;;23.30;91.60;;;;;;4997771;28;20060;-73
2022/05/19 07:24:16;;;;;;;7.00;2.28;;;24.50;90.50;;;;;;4992800;28;20118;-71
2022/05/19 07:26:50;;;;;;;4.20;2.40;;;26.00;87.00;;;;;;4989543;28;20087;-74
2022/05/19 07:29:18;;;;;;;8.30;2.65;;;26.80;84.60;;;;;;5000775;28;20392;-73
2022/05/19 07:31:44;;;;;;;4.75;2.50;;;27.30;83.60;;;;;;4991438;28;20037;-74
2022/05/19 07:34:11;;;;;;;14.27;3.20;;;27.80;84.00;;;;;;4988792;28;20056;-74
2022/05/19 07:36:37;;;;;;;8.77;2.75;;;27.50;81.80;;;;;;4992653;28;20560;-73
2022/05/19 07:39:03;;;;;;;4.90;2.20;;;27.40;83.00;;;;;;5001892;28;20578;-74
2022/05/19 07:41:30;;;;;;;8.68;2.78;;;27.60;82.80;;;;;;4991793;28;20038;-74
2022/05/19 07:43:57;;;;;;;9.20;2.95;;;28.10;80.90;;;;;;4990491;28;20069;-73
2022/05/19 07:46:27;;;;;;;7.32;2.70;;;28.00;81.00;;;;;;4988755;28;20038;-74
2022/05/19 07:48:54;;;;;;;7.85;2.40;;;27.90;81.20;;;;;;5006733;28;20029;-74
2022/05/19 07:51:26;;;;;;;5.10;2.80;;;27.90;82.90;;;;;;5008876;28;20030;-74
2022/05/19 07:53:53;;;;;;;5.97;3.05;;;26.90;81.60;;;;;;5009009;28;20030;-74
2022/05/19 07:56:19;;;;;;;5.35;2.22;;;26.70;82.50;;;;;;5009291;28;20030;-73
2022/05/19 07:58:46;;;;;;;4.65;2.22;;;25.90;82.40;;;;;;5009790;28;20034;-74
2022/05/19 08:01:13;;;;;;;6.63;2.40;;;25.70;83.00;;;;;;5009461;28;20036;-74
2022/05/19 08:03:39;;;;;;;11.02;2.22;;;26.30;84.30;;;;;;5009289;28;20061;-74
2022/05/19 08:06:07;;;;;;;7.18;2.35;;;26.20;84.60;;;;;;5009101;28;20038;-74
2022/05/19 08:08:34;;;;;;;9.30;2.33;;;25.90;85.10;;;;;;5009143;28;20037;-74
2022/05/19 08:11:00;;;;;;;8.73;2.78;;;25.70;84.90;;;;;;5009113;28;20022;-74
2022/05/19 08:16:10;;;;;;;7.00;2.85;;;24.90;88.40;;;;;;5009112;28;20169;-74
2022/05/19 08:18:36;;;;;;;4.68;2.67;;;24.40;86.90;;;;;;5008118;28;20108;-74
2022/05/19 08:21:06;;;;;;;7.13;3.15;;;23.90;87.90;;;;;;5009347;28;20026;-74
2022/05/19 08:23:34;;;;;;;8.60;2.65;;;23.80;88.00;;;;;;5009040;28;20075;-74
2022/05/19 08:26:01;;;;;;;5.97;2.20;;;24.00;89.80;;;;;;5008871;28;20021;-74
2022/05/19 08:28:30;;;;;;;10.48;3.30;;;23.90;88.20;;;;;;5008535;28;20040;-74
2022/05/19 08:30:59;;;;;;;6.55;2.25;;;23.60;88.10;;;;;;5008530;28;20076;-74
2022/05/19 08:33:26;;;;;;;5.80;2.25;;;23.20;89.00;;;;;;5008550;28;20041;-74
2022/05/19 08:35:52;;;;;;;7.28;2.63;;;23.30;90.30;;;;;;5008856;28;20438;-74
2022/05/19 08:38:19;;;;;;;5.65;2.35;;;23.80;90.50;;;;;;5008827;28;20029;-74
2022/05/19 08:40:49;;;;;;;6.38;2.53;;;23.70;88.70;;;;;;5009087;28;20072;-74
2022/05/19 08:43:18;;;;;;;7.57;2.83;;;23.80;87.10;;;;;;5008890;28;20045;-74
2022/05/19 08:45:50;;;;;;;8.02;2.80;;;24.00;88.60;;;;;;5008338;28;20037;-74
2022/05/19 08:48:21;;;;;;;12.85;2.47;;;24.20;87.50;;;;;;5008556;28;20049;-74
2022/05/19 08:50:53;;;;;;;8.95;3.03;;;24.30;87.40;;;;;;5008385;28;20026;-74
2022/05/19 08:53:19;;;;;;;7.20;2.90;;;24.70;86.50;;;;;;5008344;28;20056;-74
2022/05/19 08:55:50;;;;;;;12.63;2.95;;;24.40;88.60;;;;;;5008403;28;20026;-74
2022/05/19 08:58:18;;;;;;;7.35;2.85;;;24.60;88.40;;;;;;5008669;28;20041;-74
2022/05/19 09:00:55;;;;;;;5.10;2.50;;;24.80;88.00;;;;;;5008699;28;20026;-74
2022/05/19 09:03:24;;;;;;;5.13;2.40;;;24.70;87.80;;;;;;5008563;28;20040;-74
2022/05/19 09:06:05;;;;;;;24.15;3.55;;;24.90;86.60;;;;;;5008570;28;20109;-74
2022/05/19 09:08:40;;;;;;;8.18;2.85;;;25.10;87.90;;;;;;5008441;28;20069;-74
2022/05/19 09:11:18;;;;;;;6.20;2.00;;;25.20;87.30;;;;;;5008526;28;20061;-74
2022/05/19 09:14:10;;;;;;;9.60;2.50;;;25.20;87.00;;;;;;5008526;28;20087;-74
2022/05/19 09:16:42;;;;;;;6.80;2.88;;;25.20;87.30;;;;;;5006857;28;20026;-74
2022/05/19 09:19:23;;;;;;;9.55;2.60;;;25.20;86.40;;;;;;5005212;28;20069;-74
2022/05/19 09:22:06;;;;;;;5.07;2.38;;;25.30;86.60;;;;;;5006906;28;20512;-74
2022/05/19 09:24:32;;;;;;;6.43;2.45;;;25.30;86.80;;;;;;5008160;28;20033;-74
2022/05/19 09:27:00;;;;;;;7.55;2.10;;;25.50;86.70;;;;;;5006854;28;20026;-74
2022/05/19 09:29:29;;;;;;;5.22;2.67;;;25.50;86.00;;;;;;5009973;28;20106;-74
2022/05/19 09:32:03;;;;;;;4.78;2.33;;;25.40;84.70;;;;;;5012159;28;20041;-74
2022/05/19 09:34:30;;;;;;;5.65;2.40;;;25.10;84.10;;;;;;5011966;28;20025;-74
2022/05/19 09:37:09;;;;;;;5.72;2.78;;;25.30;84.70;;;;;;5011627;28;20026;-74
2022/05/19 09:39:53;;;;;;;4.80;2.22;;;25.40;85.60;;;;;;5011278;28;20510;-74
2022/05/19 09:42:33;;;;;;;8.13;2.53;;;25.80;85.50;;;;;;5011507;28;20034;-74
2022/05/19 09:44:59;;;;;;;6.93;2.40;;;25.60;84.40;;;;;;5010813;28;20044;-74
2022/05/19 09:47:33;;;;;;;5.45;2.20;;;25.70;85.60;;;;;;5011482;28;20032;-73
2022/05/19 09:50:25;;;;;;;7.47;2.30;;;25.90;85.20;;;;;;5011481;28;20026;-74
2022/05/19 09:53:00;;;;;;;7.63;2.58;;;26.10;86.40;;;;;;5010607;28;20117;-74
2022/05/19 09:55:27;;;;;;;5.63;2.20;;;26.30;84.70;;;;;;5011536;28;20509;-74
2022/05/19 09:58:02;;;;;;;7.10;2.40;;;26.00;84.90;;;;;;5011514;28;20030;-74
2022/05/19 10:00:50;;;;;;;6.78;2.50;;;26.40;83.40;;;;;;5011075;28;20205;-74
2022/05/19 10:03:34;;;;;;;7.82;2.75;;;26.50;84.00;;;;;;5011226;28;20552;-74
2022/05/19 10:06:08;;;;;;;7.90;2.53;;;26.30;83.20;;;;;;5011361;28;20128;-74
2022/05/19 10:08:43;;;;;;;7.82;2.33;;;26.30;82.30;;;;;;5011062;28;20073;-74
2022/05/19 10:11:18;;;;;;;5.82;2.33;;;26.40;83.80;;;;;;5011393;28;20105;-74
2022/05/19 10:13:46;;;;;;;6.95;2.55;;;26.40;82.10;;;;;;5011039;28;20034;-74
2022/05/19 10:16:46;;;;;;;6.38;2.72;;;26.60;83.20;;;;;;5011255;28;20473;-74
2022/05/19 10:19:36;;;;;;;4.85;2.20;;;26.60;83.10;;;;;;5011010;28;20057;-74
2022/05/19 10:22:23;;;;;;;4.47;2.47;;;26.60;82.60;;;;;;5009400;28;20050;-74
2022/05/19 10:25:14;;;;;;;3.85;2.10;;;26.70;83.80;;;;;;5011152;28;20036;-74
2022/05/19 10:31:04;;;;;;;;;;;27.00;82.60;;;;;;5011087;28;20423;-74
2022/05/19 10:33:49;;;;;;;7.97;1.85;;;26.90;83.90;;;;;;5010597;28;19932;-74
2022/05/19 10:36:48;;;;;;;5.55;2.35;;;27.00;82.90;;;;;;5009206;28;20049;-74
2022/05/19 10:39:19;;;;;;;5.47;2.40;;;26.50;82.10;;;;;;5010587;28;20034;-74
2022/05/19 10:42:00;;;;;;;4.18;2.00;;;26.70;84.10;;;;;;5009559;28;20092;-74
2022/05/19 10:44:44;;;;;;;5.18;2.50;;;26.80;83.80;;;;;;5010452;28;20766;-74
2022/05/19 10:47:40;;;;;;;6.90;2.35;;;26.90;82.20;;;;;;5010427;28;20480;-74
2022/05/19 10:50:16;;;;;;;8.38;2.20;;;26.90;82.80;;;;;;5010618;28;20618;-74
2022/05/19 10:52:54;;;;;;;6.05;2.08;;;26.70;82.50;;;;;;5007876;28;20022;-74
2022/05/19 10:55:49;;;;;;;6.25;2.42;;;27.20;83.40;;;;;;5007246;28;20058;-74
2022/05/19 10:58:29;;;;;;;6.25;2.75;;;27.30;82.40;;;;;;5006678;28;20034;-74
2022/05/19 11:01:00;;;;;;;5.15;2.05;;;27.80;82.30;;;;;;5007502;28;20037;-74
2022/05/19 11:03:38;;;;;;;3.53;2.13;;;27.70;82.00;;;;;;5007626;28;20034;-74
2022/05/19 11:06:18;;;;;;;4.63;2.35;;;27.70;81.40;;;;;;5007716;28;20610;-74
2022/05/19 11:09:20;;;;;;;5.68;2.78;;;27.10;82.40;;;;;;5007299;28;20030;-74
2022/05/19 11:12:00;;;;;;;7.88;2.30;;;27.70;84.40;;;;;;5007272;28;20105;-74
2022/05/19 11:14:58;;;;;;;6.70;2.70;;;27.60;81.80;;;;;;5006903;28;20493;-74
2022/05/19 11:18:02;;;;;;;5.60;2.20;;;27.70;80.80;;;;;;5005568;28;20033;-74
2022/05/19 11:20:39;;;;;;;4.95;2.58;;;27.60;82.00;;;;;;5006933;28;20114;-74
2022/05/19 11:23:18;;;;;;;13.48;4.10;;;28.30;81.20;;;;;;5006636;28;20492;-74
2022/05/19 11:28:43;;;;;;;5.18;2.40;;;28.80;81.70;;;;;;5006572;28;20084;-74
2022/05/19 11:31:21;;;;;;;6.03;2.75;;;28.60;81.40;;;;;;5007288;28;20106;-74
2022/05/19 11:33:52;;;;;;;7.97;2.53;;;28.70;81.30;;;;;;5006384;28;20061;-74
2022/05/19 11:36:33;;;;;;;13.20;3.05;;;28.40;80.20;;;;;;5005895;28;20041;-74
2022/05/19 11:39:17;;;;;;;9.50;2.47;;;28.40;81.10;;;;;;5005735;28;20037;-74
2022/05/19 11:41:45;;;;;;;6.82;2.25;;;28.50;80.80;;;;;;5006142;28;20065;-74
2022/05/19 11:44:23;;;;;;;11.18;3.10;;;28.60;80.60;;;;;;5006254;28;20042;-75
2022/05/19 11:47:09;;;;;;;22.50;4.07;;;28.40;81.00;;;;;;5006919;28;20030;-74
2022/05/19 11:55:45;;;;;;;6.78;2.38;;;28.00;81.60;;;;;;5006195;28;20139;-74
2022/05/19 11:58:20;;;;;;;4.45;2.38;;;28.20;81.80;;;;;;5006544;28;20049;-75
2022/05/19 12:00:46;;;;;;;6.55;2.40;;;28.10;80.90;;;;;;5006451;28;20682;-74
2022/05/19 12:03:29;;;;;;;4.85;3.05;;;27.60;80.80;;;;;;5006015;28;20046;-74
2022/05/19 12:06:12;;;;;;;12.32;2.85;;;28.00;82.40;;;;;;5006831;28;20052;-75
2022/05/19 12:08:41;;;;;;;10.90;3.05;;;28.20;80.80;;;;;;5006050;28;20075;-74
2022/05/19 12:11:31;;;;;;;7.07;2.58;;;28.10;81.70;;;;;;5006523;28;20036;-74
2022/05/19 12:14:12;;;;;;;4.40;2.13;;;27.90;81.70;;;;;;5006306;28;20082;-74
2022/05/19 12:16:59;;;;;;;7.55;2.30;;;27.70;80.90;;;;;;5006283;28;20128;-74
2022/05/19 12:19:38;;;;;;;8.80;2.90;;;27.80;81.70;;;;;;5006165;28;20087;-74
2022/05/19 12:22:10;;;;;;;16.98;3.35;;;27.80;80.90;;;;;;5005866;28;20121;-74
2022/05/19 12:24:42;;;;;;;10.32;2.97;;;27.70;81.60;;;;;;5006022;28;20022;-74
2022/05/19 12:27:18;;;;;;;6.25;2.25;;;28.10;81.30;;;;;;5005633;28;20168;-74
2022/05/19 12:33:28;;;;;;;6.75;2.58;;;28.10;80.90;;;;;;5022820;28;20041;-74
2022/05/19 12:35:59;;;;;;;6.43;2.60;;;28.50;80.90;;;;;;5005294;28;20030;-74
2022/05/19 12:38:35;;;;;;;5.35;2.28;;;28.00;80.80;;;;;;4997900;28;20627;-74
2022/05/19 12:41:28;;;;;;;12.85;2.63;;;28.00;80.40;;;;;;4984902;28;20038;-74
2022/05/19 12:43:56;;;;;;;8.90;2.80;;;27.80;80.00;;;;;;4985195;28;20097;-74
2022/05/19 12:46:35;;;;;;;9.30;2.78;;;27.80;80.30;;;;;;4986159;28;20023;-74
2022/05/19 12:49:24;;;;;;;6.28;2.38;;;28.10;80.70;;;;;;4986614;28;20087;-74
2022/05/19 12:51:52;;;;;;;6.25;2.30;;;28.30;80.80;;;;;;4986275;28;20053;-74
2022/05/19 12:54:20;;;;;;;6.47;2.20;;;28.10;80.30;;;;;;4986323;28;20038;-74
2022/05/19 12:56:46;;;;;;;7.45;2.40;;;28.20;80.30;;;;;;4986000;28;20465;-74
2022/05/19 12:59:33;;;;;;;5.25;2.60;;;28.30;80.60;;;;;;4985926;28;20026;-74
2022/05/19 13:02:10;;;;;;;6.35;2.38;;;28.10;80.00;;;;;;4985598;28;20038;-74
2022/05/19 13:04:44;;;;;;;5.63;2.88;;;28.30;80.60;;;;;;4987805;28;20043;-74
2022/05/19 13:07:21;;;;;;;7.70;2.80;;;28.40;80.80;;;;;;4990030;28;20022;-74
2022/05/19 13:10:15;;;;;;;6.57;2.30;;;28.30;80.80;;;;;;4989571;28;20094;-74
2022/05/19 13:12:51;;;;;;;6.80;2.72;;;28.40;81.20;;;;;;4988723;28;20031;-74
2022/05/19 13:15:26;;;;;;;5.45;2.55;;;28.50;79.90;;;;;;4989585;28;20166;-74
2022/05/19 13:17:53;;;;;;;5.07;2.67;;;28.60;80.50;;;;;;4989069;28;20669;-74
2022/05/19 13:20:24;;;;;;;6.88;2.78;;;28.30;80.60;;;;;;4989611;28;20039;-74
2022/05/19 13:22:54;;;;;;;7.93;2.83;;;28.40;80.10;;;;;;4989514;28;20693;-74
2022/05/19 13:25:20;;;;;;;5.30;2.60;;;28.00;80.40;;;;;;4989111;28;20034;-74
2022/05/19 13:30:45;;;;;;;5.43;3.08;;;28.40;81.10;;;;;;4989091;28;20096;-74